createdAt,value
2022-12-08T00:01:24.657Z,6.75
2022-12-08T00:03:52.859Z,7.07
2022-12-08T00:06:48.920Z,7.80
2022-12-08T00:09:25.112Z,7.22
2022-12-08T00:11:55.588Z,6.97
2022-12-08T00:17:00.155Z,7.60
2022-12-08T00:19:28.896Z,7.63
2022-12-08T00:21:57.349Z,7.22
2022-12-08T00:24:26.745Z,7.20
2022-12-08T00:26:54.481Z,7.32
2022-12-08T00:29:22.163Z,6.70
2022-12-08T00:31:51.560Z,6.95
2022-12-08T00:34:19.238Z,6.68
2022-12-08T00:36:47.182Z,6.07
2022-12-08T00:39:16.212Z,6.60
2022-12-08T00:42:01.609Z,7.18
2022-12-08T00:44:29.339Z,6.80
2022-12-08T00:46:58.430Z,6.90
2022-12-08T00:49:26.057Z,7.18
2022-12-08T00:51:53.918Z,6.93
2022-12-08T00:54:22.886Z,6.93
2022-12-08T00:56:50.900Z,7.40
2022-12-08T00:59:18.887Z,7.13
2022-12-08T01:01:47.895Z,7.60
2022-12-08T01:04:18.954Z,6.78
2022-12-08T01:06:47.381Z,8.25
2022-12-08T01:09:16.571Z,8.52
2022-12-08T01:11:45.471Z,8.77
2022-12-08T01:14:13.631Z,7.97
2022-12-08T01:16:42.023Z,8.00
2022-12-08T01:19:12.016Z,8.50
2022-12-08T01:21:41.788Z,8.05
2022-12-08T01:24:12.063Z,7.85
2022-12-08T01:26:39.739Z,8.32
2022-12-08T01:29:07.992Z,8.27
2022-12-08T01:31:35.912Z,7.70
2022-12-08T01:34:03.580Z,8.18
2022-12-08T01:36:33.418Z,8.90
2022-12-08T01:39:03.087Z,7.78
2022-12-08T01:41:34.500Z,8.85
2022-12-08T01:44:04.395Z,8.60
2022-12-08T01:46:33.607Z,8.00
2022-12-08T01:49:04.854Z,7.38
2022-12-08T01:51:35.994Z,7.85
2022-12-08T01:54:06.823Z,7.45
2022-12-08T01:56:43.271Z,7.97
2022-12-08T01:59:11.876Z,8.77
2022-12-08T02:01:39.839Z,7.80
2022-12-08T02:04:07.658Z,8.50
2022-12-08T02:06:39.577Z,7.50
2022-12-08T02:09:09.470Z,7.38
2022-12-08T02:11:37.154Z,6.85
2022-12-08T02:14:07.240Z,6.90
2022-12-08T02:16:42.126Z,6.80
2022-12-08T02:19:33.851Z,7.00
2022-12-08T02:22:07.906Z,6.90
2022-12-08T02:24:41.953Z,7.38
2022-12-08T02:27:29.427Z,6.68
2022-12-08T02:30:13.275Z,7.35
2022-12-08T02:33:07.063Z,7.10
2022-12-08T02:35:44.295Z,6.90
2022-12-08T02:38:20.604Z,6.95
2022-12-08T02:40:54.800Z,7.22
2022-12-08T02:43:29.621Z,8.57
2022-12-08T02:46:02.454Z,7.80
2022-12-08T02:48:30.598Z,8.60
2022-12-08T02:50:59.615Z,7.75
2022-12-08T02:53:29.259Z,8.43
2022-12-08T02:56:04.367Z,7.55
2022-12-08T02:58:45.215Z,7.72
2022-12-08T03:01:33.260Z,7.85
2022-12-08T03:04:05.407Z,7.30
2022-12-08T03:06:42.257Z,7.50
2022-12-08T03:09:15.259Z,7.38
2022-12-08T03:11:48.872Z,7.45
2022-12-08T03:14:19.040Z,7.00
2022-12-08T03:16:49.768Z,6.97
2022-12-08T03:19:20.383Z,6.93
2022-12-08T03:21:53.373Z,6.78
2022-12-08T03:24:24.064Z,6.93
2022-12-08T03:26:56.274Z,7.25
2022-12-08T03:29:24.457Z,6.30
2022-12-08T03:31:56.343Z,7.25
2022-12-08T03:34:26.325Z,7.15
2022-12-08T03:36:55.850Z,7.40
2022-12-08T03:39:24.314Z,7.20
2022-12-08T03:41:51.935Z,7.35
2022-12-08T03:44:19.640Z,6.97
2022-12-08T03:46:47.260Z,7.18
2022-12-08T03:49:14.947Z,7.05
2022-12-08T03:51:42.600Z,7.18
2022-12-08T03:54:11.803Z,6.80
2022-12-08T03:56:40.630Z,7.25
2022-12-08T03:59:08.850Z,6.32
2022-12-08T04:01:36.543Z,6.72
2022-12-08T04:04:04.444Z,7.45
2022-12-08T04:06:32.062Z,6.95
2022-12-08T04:08:59.903Z,7.50
2022-12-08T04:11:28.843Z,6.95
2022-12-08T04:13:56.490Z,7.43
2022-12-08T04:16:26.534Z,7.68
2022-12-08T04:18:55.324Z,8.60
2022-12-08T04:21:23.196Z,9.23
2022-12-08T04:23:52.920Z,9.13
2022-12-08T04:26:23.849Z,10.48
2022-12-08T04:28:52.838Z,9.95
2022-12-08T04:31:20.535Z,10.65
2022-12-08T04:33:48.656Z,10.30
2022-12-08T04:36:16.351Z,9.75
2022-12-08T04:38:44.043Z,9.38
2022-12-08T04:41:11.667Z,10.15
2022-12-08T04:43:39.334Z,10.43
2022-12-08T04:46:09.943Z,10.27
2022-12-08T04:48:38.659Z,10.75
2022-12-08T04:51:06.877Z,10.38
2022-12-08T04:53:35.020Z,10.52
2022-12-08T04:56:02.665Z,10.45
2022-12-08T04:58:30.345Z,11.27
2022-12-08T05:00:58.005Z,10.82
2022-12-08T05:03:28.828Z,11.40
2022-12-08T05:05:56.798Z,11.15
2022-12-08T05:08:24.637Z,11.23
2022-12-08T05:10:52.341Z,11.02
2022-12-08T05:13:19.983Z,11.10
2022-12-08T05:15:47.603Z,12.60
2022-12-08T05:18:15.639Z,12.15
2022-12-08T05:20:44.620Z,11.20
2022-12-08T05:23:12.278Z,11.65
2022-12-08T05:25:39.895Z,12.02
2022-12-08T05:28:39.450Z,12.57
2022-12-08T05:30:55.242Z,12.82
2022-12-08T05:33:22.864Z,12.52
2022-12-08T05:35:51.897Z,13.27
2022-12-08T05:38:20.352Z,13.27
2022-12-08T05:40:47.981Z,14.23
2022-12-08T05:43:15.871Z,13.57
2022-12-08T05:45:43.714Z,14.10
2022-12-08T05:48:11.441Z,14.05
2022-12-08T05:50:39.131Z,14.68
2022-12-08T05:53:08.083Z,14.57
2022-12-08T05:55:35.717Z,15.55
2022-12-08T05:58:07.801Z,14.98
2022-12-08T06:00:35.802Z,14.63
2022-12-08T06:03:03.550Z,14.65
2022-12-08T06:05:33.353Z,13.85
2022-12-08T06:08:01.033Z,15.45
2022-12-08T06:10:30.185Z,15.05
2022-12-08T06:12:58.011Z,14.20
2022-12-08T06:15:25.660Z,15.05
2022-12-08T06:17:53.381Z,15.38
2022-12-08T06:20:21.067Z,16.05
2022-12-08T06:22:48.737Z,16.35
2022-12-08T06:25:16.503Z,15.32
2022-12-08T06:27:45.471Z,15.65
2022-12-08T06:30:13.618Z,17.17
2022-12-08T06:32:41.335Z,15.43
2022-12-08T06:35:09.925Z,15.85
2022-12-08T06:37:38.074Z,15.70
2022-12-08T06:40:07.132Z,15.65
2022-12-08T06:42:47.609Z,15.50
2022-12-08T06:45:18.487Z,16.15
2022-12-08T06:47:46.178Z,15.50
2022-12-08T06:50:14.726Z,16.40
2022-12-08T06:52:51.730Z,15.23
2022-12-08T06:55:57.410Z,16.33
2022-12-08T06:58:14.726Z,16.27
2022-12-08T07:00:44.129Z,16.17
2022-12-08T07:03:12.597Z,15.68
2022-12-08T07:05:40.585Z,16.35
2022-12-08T07:08:09.924Z,15.88
2022-12-08T07:10:38.144Z,16.02
2022-12-08T07:13:05.946Z,15.40
2022-12-08T07:15:33.737Z,16.02
2022-12-08T07:18:02.693Z,15.23
2022-12-08T07:20:30.356Z,15.90
2022-12-08T07:22:58.059Z,16.20
2022-12-08T07:25:25.711Z,15.93
2022-12-08T07:27:53.451Z,14.43
2022-12-08T07:30:21.239Z,15.70
2022-12-08T07:32:48.962Z,14.55
2022-12-08T07:35:18.131Z,15.50
2022-12-08T07:37:45.778Z,15.40
2022-12-08T07:40:14.709Z,15.52
2022-12-08T07:42:42.653Z,15.18
2022-12-08T07:45:10.993Z,15.00
2022-12-08T07:47:38.625Z,15.45
2022-12-08T07:50:07.913Z,14.40
2022-12-08T07:52:36.991Z,14.85
2022-12-08T07:55:05.043Z,15.13
2022-12-08T07:57:32.730Z,15.10
2022-12-08T08:00:00.378Z,13.95
2022-12-08T08:02:28.165Z,14.50
2022-12-08T08:04:56.007Z,13.45
2022-12-08T08:07:23.679Z,14.30
2022-12-08T08:09:52.706Z,13.48
2022-12-08T08:12:31.357Z,13.23
2022-12-08T08:14:59.998Z,14.52
2022-12-08T08:17:27.761Z,14.15
2022-12-08T08:19:55.526Z,14.30
2022-12-08T08:22:23.196Z,14.73
2022-12-08T08:24:52.142Z,13.75
2022-12-08T08:27:19.907Z,13.93
2022-12-08T08:29:47.839Z,13.80
2022-12-08T08:32:15.458Z,13.48
2022-12-08T08:34:43.078Z,13.85
2022-12-08T08:37:10.812Z,14.15
2022-12-08T08:39:38.506Z,13.63
2022-12-08T08:42:07.597Z,15.48
2022-12-08T08:44:35.238Z,14.43
2022-12-08T08:47:02.863Z,14.23
2022-12-08T08:49:30.698Z,14.07
2022-12-08T08:51:58.372Z,14.38
2022-12-08T08:54:26.087Z,15.10
2022-12-08T08:56:53.686Z,15.77
2022-12-08T08:59:22.912Z,14.73
2022-12-08T09:01:50.617Z,14.55
2022-12-08T09:04:18.680Z,14.32
2022-12-08T09:06:46.396Z,15.57
2022-12-08T09:09:14.005Z,13.93
2022-12-08T09:11:41.685Z,14.40
2022-12-08T09:14:11.812Z,15.07
2022-12-08T09:16:42.499Z,14.50
2022-12-08T09:19:10.753Z,14.48
2022-12-08T09:21:38.438Z,14.80
2022-12-08T09:24:06.482Z,14.05
2022-12-08T09:26:34.072Z,14.57
2022-12-08T09:29:01.784Z,13.73
2022-12-08T09:31:29.472Z,16.05
2022-12-08T09:33:59.255Z,15.50
2022-12-08T09:36:27.052Z,14.73
2022-12-08T09:38:54.811Z,15.38
2022-12-08T09:41:38.922Z,14.75
2022-12-08T09:44:44.110Z,14.02
2022-12-08T09:47:19.909Z,14.73
2022-12-08T09:49:54.058Z,14.88
2022-12-08T09:52:26.235Z,14.43
2022-12-08T09:54:54.008Z,17.65
2022-12-08T09:57:24.696Z,14.85
2022-12-08T09:59:56.403Z,22.13
2022-12-08T10:02:25.185Z,13.90
2022-12-08T10:04:56.168Z,13.77
2022-12-08T10:07:31.932Z,15.02
2022-12-08T10:10:04.663Z,15.15
2022-12-08T10:12:40.322Z,23.23
2022-12-08T10:15:29.821Z,15.50
2022-12-08T10:18:01.667Z,14.95
2022-12-08T10:20:37.747Z,14.43
2022-12-08T10:23:10.283Z,14.23
2022-12-08T10:25:42.412Z,15.52
2022-12-08T10:28:10.679Z,14.18
2022-12-08T10:30:39.088Z,15.00
2022-12-08T10:33:10.909Z,14.55
2022-12-08T10:35:47.350Z,14.15
2022-12-08T10:38:21.512Z,13.77
2022-12-08T10:40:50.752Z,14.90
2022-12-08T10:43:21.727Z,15.02
2022-12-08T10:45:49.535Z,14.25
2022-12-08T10:48:20.447Z,14.13
2022-12-08T10:50:55.417Z,13.63
2022-12-08T10:53:25.760Z,14.38
2022-12-08T10:56:06.325Z,14.02
2022-12-08T10:58:35.763Z,14.63
2022-12-08T11:01:07.197Z,13.90
2022-12-08T11:03:38.813Z,13.55
2022-12-08T11:06:16.532Z,13.98
2022-12-08T11:08:49.611Z,13.75
2022-12-08T11:11:17.943Z,14.40
2022-12-08T11:13:45.695Z,12.98
2022-12-08T11:16:15.988Z,14.07
2022-12-08T11:18:46.934Z,13.45
2022-12-08T11:21:17.607Z,12.52
2022-12-08T11:23:48.877Z,12.23
2022-12-08T11:26:30.585Z,12.60
2022-12-08T11:28:58.599Z,12.77
2022-12-08T11:31:31.266Z,12.77
2022-12-08T11:33:59.164Z,11.95
2022-12-08T11:36:31.306Z,12.45
2022-12-08T11:39:01.781Z,13.00
2022-12-08T11:44:06.798Z,11.85
2022-12-08T11:46:40.305Z,13.13
2022-12-08T11:49:12.728Z,13.15
2022-12-08T11:51:49.194Z,12.88
2022-12-08T11:54:23.543Z,11.43
2022-12-08T11:56:54.189Z,14.20
2022-12-08T11:59:29.690Z,12.95
2022-12-08T12:01:59.144Z,14.35
2022-12-08T12:04:36.772Z,13.35
2022-12-08T12:07:37.320Z,12.75
2022-12-08T12:12:54.227Z,13.00
2022-12-08T12:15:52.224Z,12.57
2022-12-08T12:18:28.117Z,12.25
2022-12-08T12:21:00.416Z,12.10
2022-12-08T12:23:37.177Z,11.23
2022-12-08T12:26:08.713Z,12.70
2022-12-08T12:28:42.792Z,11.98
2022-12-08T12:31:13.234Z,12.27
2022-12-08T12:36:10.857Z,11.70
2022-12-08T12:39:04.297Z,11.02
2022-12-08T12:41:43.891Z,11.13
2022-12-08T12:44:37.615Z,12.18
2022-12-08T12:47:08.477Z,10.25
2022-12-08T12:50:07.807Z,11.48
2022-12-08T12:52:48.921Z,10.75
2022-12-08T12:55:55.104Z,10.18
2022-12-08T12:58:50.774Z,11.45
2022-12-08T13:01:38.577Z,10.70
2022-12-08T13:04:09.073Z,10.43
2022-12-08T13:09:07.860Z,11.68
2022-12-08T13:11:50.589Z,10.82
2022-12-08T13:14:29.405Z,11.25
2022-12-08T13:17:00.093Z,11.52
2022-12-08T13:19:31.955Z,11.93
2022-12-08T13:22:00.337Z,11.88
2022-12-08T13:24:35.444Z,11.98
2022-12-08T13:27:35.484Z,11.88
2022-12-08T13:30:39.963Z,11.25
2022-12-08T13:33:18.874Z,11.23
2022-12-08T13:35:54.530Z,11.60
2022-12-08T13:38:27.518Z,11.25
2022-12-08T13:40:57.016Z,9.98
2022-12-08T13:43:45.053Z,11.13
2022-12-08T13:47:09.322Z,9.95
2022-12-08T13:50:49.603Z,11.15
2022-12-08T13:55:49.842Z,11.38
2022-12-08T13:57:38.230Z,12.52
2022-12-08T14:00:17.056Z,11.73
2022-12-08T14:02:48.438Z,12.85
2022-12-08T14:05:23.477Z,13.32
2022-12-08T14:07:58.297Z,12.57
2022-12-08T14:10:28.788Z,13.85
2022-12-08T14:15:30.234Z,13.77
2022-12-08T14:18:02.333Z,13.90
2022-12-08T14:20:33.808Z,13.60
2022-12-08T14:23:10.849Z,15.00
2022-12-08T14:25:39.284Z,13.48
2022-12-08T14:28:07.402Z,12.50
2022-12-08T14:30:37.899Z,13.70
2022-12-08T14:35:36.870Z,9.73
2022-12-08T14:38:07.293Z,9.82
2022-12-08T14:43:16.659Z,10.32
2022-12-08T14:45:53.355Z,7.20
2022-12-08T14:48:24.202Z,7.43
2022-12-08T14:51:06.807Z,7.53
2022-12-08T14:53:42.387Z,7.72
2022-12-08T14:56:20.092Z,7.82
2022-12-08T14:58:50.284Z,7.53
2022-12-08T15:01:24.717Z,7.75
2022-12-08T15:03:54.993Z,8.65
2022-12-08T15:06:23.813Z,8.35
2022-12-08T15:08:54.548Z,8.75
2022-12-08T15:11:35.315Z,8.02
2022-12-08T15:14:03.707Z,7.22
2022-12-08T15:16:40.711Z,7.45
2022-12-08T15:19:23.337Z,7.00
2022-12-08T15:21:52.468Z,7.65
2022-12-08T15:24:21.875Z,7.82
2022-12-08T15:26:52.155Z,7.78
2022-12-08T15:29:22.815Z,8.60
2022-12-08T15:31:54.398Z,8.55
2022-12-08T15:34:22.695Z,8.63
2022-12-08T15:36:53.158Z,9.07
2022-12-08T15:41:53.730Z,8.48
2022-12-08T15:44:21.576Z,8.90
2022-12-08T15:46:50.057Z,8.77
2022-12-08T15:49:21.647Z,8.70
2022-12-08T15:51:50.293Z,8.85
2022-12-08T15:54:18.170Z,9.07
2022-12-08T15:57:17.201Z,9.07
2022-12-08T15:59:36.530Z,8.90
2022-12-08T16:02:04.919Z,9.45
2022-12-08T16:07:26.175Z,10.98
2022-12-08T16:09:55.355Z,9.77
2022-12-08T16:13:54.687Z,9.90
2022-12-08T16:15:55.214Z,9.45
2022-12-08T16:18:28.145Z,9.40
2022-12-08T16:21:31.659Z,9.80
2022-12-08T16:23:46.082Z,10.10
2022-12-08T16:26:35.684Z,9.48
2022-12-08T16:29:04.300Z,9.13
2022-12-08T16:31:32.402Z,9.20
2022-12-08T16:34:00.369Z,9.45
2022-12-08T16:36:29.795Z,9.75
2022-12-08T16:38:57.864Z,9.15
2022-12-08T16:41:43.210Z,9.98
2022-12-08T16:44:11.060Z,9.48
2022-12-08T16:46:39.174Z,9.70
2022-12-08T16:49:10.607Z,9.68
2022-12-08T16:51:39.791Z,10.05
2022-12-08T16:54:07.938Z,10.00
2022-12-08T16:56:36.042Z,9.27
2022-12-08T16:59:04.084Z,9.05
2022-12-08T17:01:32.198Z,10.23
2022-12-08T17:04:30.043Z,9.18
2022-12-08T17:06:52.846Z,9.65
2022-12-08T17:09:20.780Z,8.57
2022-12-08T17:11:48.819Z,8.32
2022-12-08T17:14:16.834Z,8.35
2022-12-08T17:16:46.168Z,8.30
2022-12-08T17:19:15.383Z,8.55
2022-12-08T17:21:44.375Z,8.40
2022-12-08T17:24:17.130Z,8.43
2022-12-08T17:26:48.097Z,8.45
2022-12-08T17:29:16.140Z,8.13
2022-12-08T17:31:43.952Z,8.02
2022-12-08T17:34:12.314Z,8.60
2022-12-08T17:36:40.097Z,8.27
2022-12-08T17:39:11.016Z,8.32
2022-12-08T17:41:44.394Z,8.13
2022-12-08T17:44:14.207Z,8.63
2022-12-08T17:46:46.393Z,7.97
2022-12-08T17:49:20.687Z,9.15
2022-12-08T17:51:49.498Z,9.48
2022-12-08T17:54:18.312Z,8.50
2022-12-08T17:56:47.600Z,9.20
2022-12-08T17:59:15.507Z,8.65
2022-12-08T18:01:43.786Z,9.52
2022-12-08T18:04:13.018Z,9.75
2022-12-08T18:06:41.478Z,9.65
2022-12-08T18:09:09.568Z,9.48
2022-12-08T18:11:37.823Z,9.98
2022-12-08T18:14:10.422Z,9.45
2022-12-08T18:16:39.813Z,10.13
2022-12-08T18:19:08.982Z,10.20
2022-12-08T18:21:37.487Z,9.75
2022-12-08T18:24:06.159Z,9.85
2022-12-08T18:26:34.199Z,10.40
2022-12-08T18:29:02.374Z,10.13
2022-12-08T18:31:31.801Z,10.25
2022-12-08T18:33:59.966Z,10.07
2022-12-08T18:36:27.975Z,10.32
2022-12-08T18:38:56.130Z,9.75
2022-12-08T18:41:25.987Z,9.70
2022-12-08T18:43:55.276Z,10.30
2022-12-08T18:46:23.378Z,9.98
2022-12-08T18:48:53.392Z,9.65
2022-12-08T18:51:23.770Z,10.25
2022-12-08T18:56:23.349Z,10.07
2022-12-08T18:58:51.306Z,9.90
2022-12-08T19:01:19.280Z,9.43
2022-12-08T19:04:12.026Z,10.27
2022-12-08T19:06:39.141Z,10.70
2022-12-08T19:09:07.390Z,10.82
2022-12-08T19:11:35.274Z,11.45
2022-12-08T19:14:03.262Z,10.93
2022-12-08T19:16:31.281Z,11.60
2022-12-08T19:18:59.504Z,12.02
2022-12-08T19:21:27.174Z,12.38
2022-12-08T19:23:58.317Z,11.50
2022-12-08T19:26:26.294Z,11.23
2022-12-08T19:28:53.926Z,10.95
2022-12-08T19:31:21.673Z,11.63
2022-12-08T19:33:49.377Z,10.50
2022-12-08T19:36:19.527Z,10.27
2022-12-08T19:39:04.695Z,11.30
2022-12-08T19:41:51.714Z,8.65
2022-12-08T19:44:39.047Z,9.02
2022-12-08T19:47:06.932Z,12.68
2022-12-08T19:49:34.612Z,10.68
2022-12-08T19:52:02.359Z,9.25
2022-12-08T19:54:30.080Z,10.15
2022-12-08T19:56:59.126Z,10.20
2022-12-08T19:59:27.034Z,9.23
2022-12-08T20:01:55.668Z,9.45
2022-12-08T20:04:23.705Z,9.77
2022-12-08T20:06:52.396Z,8.43
2022-12-08T20:09:20.406Z,8.68
2022-12-08T20:11:48.097Z,8.48
2022-12-08T20:14:17.624Z,8.45
2022-12-08T20:16:45.424Z,8.10
2022-12-08T20:19:13.095Z,8.23
2022-12-08T20:21:40.940Z,7.75
2022-12-08T20:24:09.028Z,8.20
2022-12-08T20:26:36.777Z,7.93
2022-12-08T20:29:04.445Z,9.30
2022-12-08T20:31:34.195Z,8.88
2022-12-08T20:34:02.505Z,8.80
2022-12-08T20:36:31.328Z,8.77
2022-12-08T20:38:59.054Z,8.90
2022-12-08T20:41:26.746Z,8.50
2022-12-08T20:43:55.047Z,8.70
2022-12-08T20:46:22.867Z,8.50
2022-12-08T20:48:52.153Z,7.72
2022-12-08T20:51:20.855Z,8.60
2022-12-08T20:53:48.705Z,9.23
2022-12-08T20:56:17.509Z,9.10
2022-12-08T20:58:45.758Z,9.00
2022-12-08T21:01:15.502Z,9.30
2022-12-08T21:03:44.101Z,8.40
2022-12-08T21:06:14.140Z,9.40
2022-12-08T21:08:42.904Z,9.32
2022-12-08T21:11:11.726Z,9.00
2022-12-08T21:13:40.251Z,10.32
2022-12-08T21:16:09.323Z,9.80
2022-12-08T21:18:39.698Z,10.77
2022-12-08T21:21:09.718Z,10.02
2022-12-08T21:23:39.029Z,9.90
2022-12-08T21:26:16.562Z,10.75
2022-12-08T21:28:44.530Z,9.82
2022-12-08T21:31:14.855Z,9.93
2022-12-08T21:33:42.718Z,10.20
2022-12-08T21:36:14.414Z,9.98
2022-12-08T21:38:44.586Z,10.60
2022-12-08T21:41:15.513Z,9.25
2022-12-08T21:43:43.855Z,9.77
2022-12-08T21:46:16.193Z,9.55
2022-12-08T21:48:43.969Z,9.38
2022-12-08T21:51:11.658Z,10.18
2022-12-08T21:53:39.362Z,8.93
2022-12-08T21:56:10.766Z,9.63
2022-12-08T21:58:39.791Z,10.50
2022-12-08T22:01:07.930Z,9.70
2022-12-08T22:03:36.432Z,10.90
2022-12-08T22:06:07.836Z,10.80
2022-12-08T22:08:35.995Z,10.57
2022-12-08T22:11:04.157Z,10.32
2022-12-08T22:13:35.018Z,9.13
2022-12-08T22:16:06.161Z,9.93
2022-12-08T22:18:35.480Z,9.98
2022-12-08T22:21:03.933Z,9.32
2022-12-08T22:23:31.611Z,10.63
2022-12-08T22:26:00.070Z,10.93
2022-12-08T22:28:29.149Z,10.52
2022-12-08T22:30:58.322Z,10.93
2022-12-08T22:33:26.146Z,11.27
2022-12-08T22:35:57.990Z,11.32
2022-12-08T22:38:26.194Z,10.70
2022-12-08T22:40:54.277Z,9.88
2022-12-08T22:43:23.241Z,11.10
2022-12-08T22:45:51.350Z,10.85
2022-12-08T22:48:20.486Z,10.23
2022-12-08T22:50:48.196Z,10.90
2022-12-08T22:53:16.132Z,10.77
2022-12-08T22:55:44.210Z,11.35
2022-12-08T22:58:12.011Z,10.82
2022-12-08T23:00:40.141Z,10.60
2022-12-08T23:03:08.158Z,10.60
2022-12-08T23:05:39.647Z,11.82
2022-12-08T23:08:08.782Z,12.48
2022-12-08T23:10:37.277Z,12.80
2022-12-08T23:13:05.047Z,12.23
2022-12-08T23:15:33.241Z,12.25
2022-12-08T23:18:01.206Z,11.90
2022-12-08T23:20:29.113Z,11.90
2022-12-08T23:22:58.316Z,12.60
2022-12-08T23:25:26.028Z,11.73
2022-12-08T23:27:53.805Z,12.07
2022-12-08T23:30:21.805Z,11.48
2022-12-08T23:32:49.876Z,12.30
2022-12-08T23:35:17.615Z,12.50
2022-12-08T23:37:45.380Z,13.93
2022-12-08T23:40:14.740Z,13.70
2022-12-08T23:42:42.503Z,12.40
2022-12-08T23:45:11.028Z,12.27
2022-12-08T23:47:38.694Z,12.48
2022-12-08T23:50:08.218Z,12.35
2022-12-08T23:52:37.624Z,11.65
2022-12-08T23:55:08.367Z,12.43
2022-12-08T23:57:37.711Z,10.55
